createdAt,value
2017-05-20T00:01:27.570Z,16.27
2017-05-20T00:03:56.534Z,18.97
2017-05-20T00:06:25.477Z,17.95
2017-05-20T00:08:54.495Z,16.12
2017-05-20T00:11:23.469Z,13.95
2017-05-20T00:13:52.403Z,14.73
2017-05-20T00:16:21.357Z,13.75
2017-05-20T00:18:50.465Z,14.32
2017-05-20T00:21:19.419Z,13.37
2017-05-20T00:23:48.349Z,14.82
2017-05-20T00:26:17.302Z,14.65
2017-05-20T00:28:46.250Z,12.93
2017-05-20T00:31:15.178Z,13.02
2017-05-20T00:33:44.149Z,13.17
2017-05-20T00:36:13.077Z,12.27
2017-05-20T00:38:42.029Z,13.42
2017-05-20T00:41:11.010Z,14.25
2017-05-20T00:43:39.930Z,15.63
2017-05-20T00:46:08.882Z,15.72
2017-05-20T00:48:37.837Z,15.05
2017-05-20T00:51:06.789Z,16.18
2017-05-20T00:53:35.733Z,16.83
2017-05-20T00:56:04.701Z,17.40
2017-05-20T00:58:33.626Z,17.25
2017-05-20T01:01:02.562Z,18.13
2017-05-20T01:03:31.532Z,17.52
2017-05-20T01:06:00.480Z,16.47
2017-05-20T01:08:29.425Z,17.07
2017-05-20T01:10:58.379Z,15.75
2017-05-20T01:13:27.300Z,14.65
2017-05-20T01:15:56.247Z,13.12
2017-05-20T01:18:25.231Z,13.45
2017-05-20T01:20:54.162Z,12.18
2017-05-20T01:23:23.109Z,14.40
2017-05-20T01:25:52.081Z,12.05
2017-05-20T01:28:21.027Z,13.47
2017-05-20T01:30:49.960Z,13.05
2017-05-20T01:33:18.910Z,13.55
2017-05-20T01:35:47.831Z,13.07
2017-05-20T01:38:16.759Z,15.02
2017-05-20T01:40:45.741Z,13.93
2017-05-20T01:43:14.684Z,14.83
2017-05-20T01:45:43.605Z,14.75
2017-05-20T01:48:12.569Z,16.00
2017-05-20T01:50:41.513Z,15.20
2017-05-20T01:53:10.460Z,14.48
2017-05-20T01:55:39.422Z,15.07
2017-05-20T01:58:08.365Z,15.22
2017-05-20T02:00:37.297Z,14.38
2017-05-20T02:03:06.245Z,16.00
2017-05-20T02:05:35.189Z,16.23
2017-05-20T02:08:04.113Z,15.20
2017-05-20T02:10:33.092Z,15.75
2017-05-20T02:13:02.039Z,16.67
2017-05-20T02:15:30.966Z,16.35
2017-05-20T02:17:59.933Z,15.67
2017-05-20T02:20:28.863Z,16.52
2017-05-20T02:22:57.803Z,16.48
2017-05-20T02:25:26.763Z,17.40
2017-05-20T02:42:46.546Z,21.33
2017-05-20T02:45:15.470Z,21.68
2017-05-20T02:47:44.421Z,22.35
2017-05-20T02:50:13.346Z,20.73
2017-05-20T02:52:42.358Z,22.62
2017-05-20T02:55:11.305Z,23.85
2017-05-20T02:57:40.258Z,22.78
2017-05-20T03:00:09.185Z,24.72
2017-05-20T03:02:38.138Z,26.42
2017-05-20T03:05:07.089Z,23.67
2017-05-20T03:07:36.010Z,23.62
2017-05-20T04:24:19.620Z,34.75
2017-05-20T04:29:17.014Z,32.45
2017-05-20T04:31:45.995Z,32.52
2017-05-20T04:36:43.445Z,35.45
2017-05-20T04:39:12.396Z,35.68
2017-05-20T04:41:41.348Z,40.77
2017-05-20T04:54:04.236Z,35.70
2017-05-20T04:59:01.641Z,36.17
2017-05-20T05:01:30.595Z,42.48
2017-05-20T05:03:59.522Z,41.42
2017-05-20T05:06:28.470Z,37.57
2017-05-20T05:08:57.440Z,36.37
2017-05-20T05:11:26.377Z,39.88
2017-05-20T05:13:55.302Z,42.02
2017-05-20T05:16:24.257Z,46.08
2017-05-20T05:18:53.201Z,39.47
2017-05-20T05:21:22.145Z,43.63
2017-05-20T05:23:51.101Z,39.52
2017-05-20T05:26:20.048Z,42.53
2017-05-20T05:28:48.988Z,41.62
2017-05-20T05:31:17.956Z,45.37
2017-05-20T05:33:46.907Z,45.07
2017-05-20T05:36:15.835Z,44.87
2017-05-20T05:38:44.808Z,46.45
2017-05-20T05:41:13.739Z,47.68
2017-05-20T05:43:42.669Z,42.68
2017-05-20T05:46:11.622Z,43.17
2017-05-20T05:48:40.571Z,46.00
2017-05-20T05:51:09.494Z,46.77
2017-05-20T05:53:38.475Z,47.03
2017-05-20T05:56:07.424Z,48.07
2017-05-20T05:58:36.368Z,51.08
2017-05-20T06:01:05.345Z,45.83
2017-05-20T06:03:34.304Z,49.83
2017-05-20T06:06:03.252Z,46.53
2017-05-20T06:08:32.227Z,44.25
2017-05-20T06:11:01.150Z,46.15
2017-05-20T06:13:30.097Z,45.97
2017-05-20T06:15:59.059Z,43.48
2017-05-20T06:18:28.009Z,46.10
2017-05-20T06:20:57.380Z,42.22
2017-05-20T06:23:26.346Z,42.48
2017-05-20T06:25:55.269Z,41.32
2017-05-20T06:28:24.193Z,43.75
2017-05-20T06:30:53.148Z,38.97
2017-05-20T06:33:22.093Z,38.50
2017-05-20T06:35:51.035Z,40.17
2017-05-20T06:38:20.012Z,42.92
2017-05-20T06:40:48.961Z,40.05
2017-05-20T06:45:47.053Z,36.20
2017-05-20T07:00:38.417Z,36.42
2017-05-20T07:27:52.276Z,38.35
2017-05-20T07:30:21.276Z,30.72
2017-05-20T07:32:50.231Z,31.80
2017-05-20T07:35:19.159Z,29.02
2017-05-20T07:37:48.138Z,34.27
2017-05-20T07:40:17.107Z,29.40
2017-05-20T07:50:11.466Z,34.20
2017-05-20T07:52:41.415Z,30.45
2017-05-20T07:55:10.338Z,30.70
2017-05-20T07:57:39.280Z,30.10
2017-05-20T08:00:08.237Z,26.95
2017-05-20T08:02:37.178Z,26.65
2017-05-20T08:05:06.125Z,32.52
2017-05-20T08:07:35.102Z,27.85
2017-05-20T08:10:04.031Z,26.08
2017-05-20T08:12:32.985Z,28.52
2017-05-20T08:15:01.938Z,30.20
2017-05-20T08:17:30.880Z,28.62
2017-05-20T08:39:47.969Z,24.60
2017-05-20T08:49:42.331Z,23.53
2017-05-20T10:23:46.148Z,17.05
2017-05-20T10:31:12.090Z,16.70
2017-05-20T10:33:41.034Z,18.17
2017-05-20T10:53:29.471Z,13.80
2017-05-20T10:55:58.399Z,13.14
2017-05-20T10:58:27.377Z,13.86
2017-05-20T11:00:56.311Z,12.36
2017-05-20T11:03:25.253Z,12.92
2017-05-20T11:05:55.206Z,11.64
2017-05-20T11:08:24.151Z,12.84
2017-05-20T11:10:53.074Z,11.78
2017-05-20T11:13:22.053Z,12.44
2017-05-20T11:15:50.988Z,11.64
2017-05-20T11:18:19.919Z,11.08
2017-05-20T11:20:49.407Z,10.64
2017-05-20T11:23:18.394Z,11.70
2017-05-20T11:25:47.328Z,11.08
2017-05-20T11:28:16.318Z,12.20
2017-05-20T11:30:45.270Z,14.96
2017-05-20T11:33:14.209Z,11.74
2017-05-20T11:35:43.192Z,12.00
2017-05-20T11:38:12.129Z,10.82
2017-05-20T11:40:41.054Z,10.10
2017-05-20T11:43:10.425Z,9.22
2017-05-20T11:45:39.356Z,9.28
2017-05-20T11:48:08.289Z,9.78
2017-05-20T11:50:37.255Z,9.87
2017-05-20T11:53:06.205Z,9.15
2017-05-20T11:55:35.127Z,9.03
2017-05-20T11:58:04.081Z,7.38
2017-05-20T12:00:33.737Z,7.78
2017-05-20T12:03:03.256Z,9.25
2017-05-20T12:05:32.254Z,8.17
2017-05-20T12:08:01.169Z,8.78
2017-05-20T12:10:30.110Z,8.35
2017-05-20T12:12:59.080Z,9.85
2017-05-20T12:15:28.007Z,9.10
2017-05-20T12:17:56.929Z,9.48
2017-05-20T12:20:25.875Z,9.72
2017-05-20T12:22:54.806Z,11.15
2017-05-20T12:25:23.749Z,9.77
2017-05-20T12:27:52.694Z,9.35
2017-05-20T12:30:21.632Z,9.77
2017-05-20T12:32:50.569Z,9.32
2017-05-20T12:35:19.537Z,10.33
2017-05-20T12:37:48.472Z,9.77
2017-05-20T12:40:17.407Z,10.50
2017-05-20T12:42:46.358Z,10.08
2017-05-20T12:45:15.282Z,7.88
2017-05-20T12:47:44.237Z,8.62
2017-05-20T12:50:13.205Z,6.87
2017-05-20T12:52:42.127Z,8.68
2017-05-20T12:55:11.047Z,7.58
2017-05-20T12:57:40.008Z,9.63
2017-05-20T13:00:08.957Z,10.60
2017-05-20T13:02:37.882Z,9.10
2017-05-20T13:05:06.839Z,9.03
2017-05-20T13:07:35.758Z,10.03
2017-05-20T13:10:04.697Z,10.45
2017-05-20T13:12:33.669Z,8.72
2017-05-20T13:15:02.616Z,10.00
2017-05-20T13:17:31.559Z,9.40
2017-05-20T13:20:00.518Z,8.73
2017-05-20T13:22:29.463Z,8.90
2017-05-20T13:24:58.390Z,8.50
2017-05-20T13:27:27.371Z,11.10
2017-05-20T13:29:56.294Z,9.20
2017-05-20T13:32:25.218Z,10.13
2017-05-20T13:34:54.163Z,9.57
2017-05-20T13:37:23.113Z,8.30
2017-05-20T13:39:52.032Z,9.10
2017-05-20T13:42:20.982Z,7.90
2017-05-20T13:44:50.009Z,7.52
2017-05-20T13:47:18.933Z,6.25
2017-05-20T13:49:47.995Z,6.75
2017-05-20T13:52:16.913Z,7.92
2017-05-20T13:54:45.852Z,5.93
2017-05-20T13:57:14.821Z,6.02
2017-05-20T13:59:43.746Z,6.08
2017-05-20T14:02:12.688Z,6.92
2017-05-20T14:04:41.633Z,6.30
2017-05-20T14:07:10.576Z,5.83
2017-05-20T14:09:39.491Z,5.43
2017-05-20T14:12:08.467Z,6.22
2017-05-20T14:14:37.400Z,6.82
2017-05-20T14:17:06.341Z,6.40
2017-05-20T14:19:35.333Z,7.50
2017-05-20T14:22:04.290Z,5.80
2017-05-20T14:24:33.210Z,6.25
2017-05-20T14:27:02.181Z,4.47
2017-05-20T14:29:31.130Z,4.93
2017-05-20T14:32:00.064Z,5.13
2017-05-20T14:34:29.028Z,4.90
2017-05-20T14:36:57.975Z,4.97
2017-05-20T14:39:26.899Z,4.62
2017-05-20T14:41:55.874Z,4.37
2017-05-20T14:44:24.812Z,5.37
2017-05-20T14:46:53.744Z,5.05
2017-05-20T14:49:22.700Z,8.45
2017-05-20T14:51:51.632Z,6.22
2017-05-20T14:54:20.574Z,5.75
2017-05-20T14:56:49.531Z,6.93
2017-05-20T14:59:18.477Z,7.52
2017-05-20T15:01:47.438Z,5.32
2017-05-20T15:04:16.417Z,5.87
2017-05-20T15:06:45.370Z,5.02
2017-05-20T15:09:14.320Z,5.27
2017-05-20T15:11:43.269Z,5.28
2017-05-20T15:14:12.199Z,8.90
2017-05-20T15:16:41.122Z,5.90
2017-05-20T15:19:10.090Z,5.48
2017-05-20T15:21:39.037Z,6.38
2017-05-20T15:24:07.965Z,5.68
2017-05-20T15:26:36.943Z,6.65
2017-05-20T15:29:05.859Z,6.87
2017-05-20T15:31:34.781Z,6.92
2017-05-20T15:34:04.886Z,6.98
2017-05-20T15:36:33.823Z,6.00
2017-05-20T15:39:02.751Z,5.95
2017-05-20T15:41:31.717Z,6.90
2017-05-20T15:44:00.657Z,5.68
2017-05-20T15:46:29.575Z,6.68
2017-05-20T15:48:58.552Z,6.52
2017-05-20T15:51:27.486Z,8.50
2017-05-20T15:53:56.425Z,5.67
2017-05-20T15:56:25.395Z,8.10
2017-05-20T15:58:54.318Z,8.28
2017-05-20T16:01:23.272Z,11.73
2017-05-20T16:03:52.219Z,7.17
2017-05-20T16:06:21.143Z,8.73
2017-05-20T16:08:50.072Z,16.05
2017-05-20T16:11:19.038Z,5.98
2017-05-20T16:13:47.990Z,6.43
2017-05-20T16:16:16.929Z,8.08
2017-05-20T16:18:45.900Z,7.13
2017-05-20T16:21:14.826Z,7.20
2017-05-20T16:23:43.768Z,6.23
2017-05-20T16:26:12.718Z,7.77
2017-05-20T16:28:41.639Z,5.95
2017-05-20T16:31:10.579Z,7.13
2017-05-20T16:33:39.557Z,8.32
2017-05-20T16:36:08.483Z,8.28
2017-05-20T16:38:37.402Z,5.73
2017-05-20T16:41:06.365Z,5.80
2017-05-20T16:43:35.317Z,6.80
2017-05-20T16:46:04.261Z,7.23
2017-05-20T16:48:33.208Z,6.83
2017-05-20T16:51:02.164Z,6.68
2017-05-20T16:53:31.105Z,5.48
2017-05-20T16:56:00.060Z,6.17
2017-05-20T16:58:28.998Z,6.78
2017-05-20T17:00:57.918Z,7.87
2017-05-20T17:03:26.874Z,10.17
2017-05-20T17:05:55.793Z,6.83
2017-05-20T17:08:24.736Z,6.73
2017-05-20T17:10:53.687Z,8.33
2017-05-20T17:13:22.637Z,12.42
2017-05-20T17:15:51.563Z,10.18
2017-05-20T17:18:20.537Z,13.35
2017-05-20T17:20:49.487Z,12.05
2017-05-20T17:23:18.420Z,8.02
2017-05-20T17:25:47.390Z,9.50
2017-05-20T17:28:16.314Z,9.07
2017-05-20T17:33:23.300Z,7.13
2017-05-20T17:35:52.247Z,12.70
2017-05-20T17:38:21.171Z,6.88
2017-05-20T17:40:50.145Z,6.35
2017-05-20T17:43:19.081Z,9.12
2017-05-20T17:45:48.018Z,6.52
2017-05-20T17:48:16.974Z,6.70
2017-05-20T17:50:45.925Z,6.70
2017-05-20T17:53:14.869Z,9.15
2017-05-20T17:55:43.822Z,6.88
2017-05-20T17:58:12.742Z,7.12
2017-05-20T18:00:41.723Z,10.90
2017-05-20T18:03:10.688Z,7.98
2017-05-20T18:05:39.617Z,9.23
2017-05-20T18:08:08.543Z,9.02
2017-05-20T18:10:37.525Z,11.03
2017-05-20T18:13:06.452Z,7.72
2017-05-20T18:15:35.404Z,12.03
2017-05-20T18:18:04.361Z,12.32
2017-05-20T18:20:33.309Z,19.70
2017-05-20T18:23:02.252Z,12.05
2017-05-20T18:25:31.229Z,11.88
2017-05-20T18:28:00.158Z,15.70
2017-05-20T18:30:29.096Z,7.27
2017-05-20T18:32:58.055Z,10.75
2017-05-20T18:35:26.997Z,8.48
2017-05-20T18:37:55.939Z,11.30
2017-05-20T18:40:24.949Z,11.37
2017-05-20T18:42:53.871Z,9.10
2017-05-20T18:45:22.796Z,9.25
2017-05-20T18:47:51.744Z,10.42
2017-05-20T18:50:20.685Z,14.60
2017-05-20T18:52:49.610Z,15.62
2017-05-20T18:55:18.585Z,13.23
2017-05-20T18:57:47.526Z,14.75
2017-05-20T19:00:16.450Z,15.07
2017-05-20T19:02:45.442Z,14.92
2017-05-20T19:05:14.380Z,9.13
2017-05-20T19:07:43.329Z,11.62
2017-05-20T19:10:12.303Z,10.53
2017-05-20T19:12:41.249Z,10.55
2017-05-20T19:15:10.191Z,9.28
2017-05-20T19:17:39.151Z,10.28
2017-05-20T19:20:08.101Z,13.93
2017-05-20T19:22:37.030Z,10.90
2017-05-20T19:25:06.005Z,10.38
2017-05-20T19:27:34.953Z,12.97
2017-05-20T19:30:03.896Z,12.00
2017-05-20T19:32:32.851Z,13.13
2017-05-20T19:35:01.780Z,11.42
2017-05-20T19:37:30.725Z,13.53
2017-05-20T19:39:59.686Z,12.28
2017-05-20T19:42:28.614Z,14.38
2017-05-20T19:44:57.550Z,12.92
2017-05-20T19:47:26.501Z,14.15
2017-05-20T19:49:55.427Z,12.92
2017-05-20T19:52:24.374Z,12.90
2017-05-20T19:54:53.357Z,13.03
2017-05-20T19:57:22.306Z,13.00
2017-05-20T19:59:51.231Z,12.37
2017-05-20T20:02:20.190Z,13.20
2017-05-20T20:04:49.145Z,14.60
2017-05-20T20:07:18.088Z,15.70
2017-05-20T20:09:47.055Z,14.67
2017-05-20T20:12:15.999Z,16.30
2017-05-20T20:14:44.977Z,15.28
2017-05-20T20:17:13.925Z,13.82
2017-05-20T20:19:42.874Z,17.68
2017-05-20T20:22:11.826Z,16.47
2017-05-20T20:24:40.763Z,13.75
2017-05-20T20:27:09.741Z,15.32
2017-05-20T20:29:38.694Z,13.13
2017-05-20T20:32:07.626Z,12.82
2017-05-20T20:34:36.575Z,13.75
2017-05-20T20:37:05.503Z,12.58
2017-05-20T20:39:34.485Z,12.43
2017-05-20T20:42:03.433Z,13.13
2017-05-20T20:44:32.379Z,13.83
2017-05-20T20:47:01.345Z,17.53
2017-05-20T20:49:30.272Z,16.45
2017-05-20T20:51:59.224Z,17.02
2017-05-20T20:54:28.189Z,18.72
2017-05-20T20:56:57.120Z,22.90
2017-05-20T20:59:26.070Z,23.58
2017-05-20T21:01:55.017Z,24.92
2017-05-20T21:04:23.985Z,29.30
2017-05-20T21:06:52.915Z,27.43
2017-05-20T21:09:21.841Z,27.43
2017-05-20T21:11:50.817Z,30.43
2017-05-20T21:14:19.788Z,31.65
2017-05-20T21:16:48.761Z,29.83
2017-05-20T21:19:17.705Z,23.80
2017-05-20T21:21:46.649Z,24.32
2017-05-20T21:24:15.618Z,23.90
2017-05-20T21:26:44.565Z,22.58
2017-05-20T21:29:13.528Z,21.90
2017-05-20T21:31:42.482Z,22.53
2017-05-20T21:34:11.425Z,22.87
2017-05-20T21:36:40.378Z,22.10
2017-05-20T21:39:09.330Z,21.35
2017-05-20T21:41:38.307Z,22.67
2017-05-20T21:44:07.253Z,21.17
2017-05-20T21:46:36.197Z,22.65
2017-05-20T21:49:05.142Z,21.10
2017-05-20T21:51:34.093Z,21.07
2017-05-20T21:54:03.066Z,20.07
2017-05-20T21:56:32.013Z,20.32
2017-05-20T21:59:00.941Z,21.13
2017-05-20T22:01:29.999Z,18.93
2017-05-20T22:03:58.948Z,19.38
2017-05-20T22:06:27.910Z,20.28
2017-05-20T22:08:56.855Z,22.13
2017-05-20T22:11:25.836Z,19.22
2017-05-20T22:13:54.813Z,19.68
2017-05-20T22:16:23.760Z,18.83
2017-05-20T22:18:52.714Z,26.17
2017-05-20T22:21:21.639Z,29.15
2017-05-20T22:23:50.579Z,34.33
2017-05-20T22:26:19.552Z,37.92
2017-05-20T22:28:48.521Z,29.38
2017-05-20T22:31:17.489Z,27.13
2017-05-20T22:33:46.427Z,23.88
2017-05-20T22:36:15.387Z,19.63
2017-05-20T22:38:44.358Z,21.57
2017-05-20T22:41:13.325Z,30.92
2017-05-20T22:43:42.272Z,38.38
2017-05-20T22:46:11.260Z,26.22
2017-05-20T22:48:40.225Z,22.22
2017-05-20T22:51:09.171Z,23.37
2017-05-20T22:53:38.157Z,21.18
2017-05-20T22:56:07.124Z,22.65
2017-05-20T22:58:36.062Z,25.43
2017-05-20T23:01:05.027Z,25.00
2017-05-20T23:03:33.979Z,24.15
2017-05-20T23:06:02.925Z,23.03
2017-05-20T23:08:31.899Z,23.57
2017-05-20T23:11:00.887Z,20.68
2017-05-20T23:13:29.815Z,23.60
2017-05-20T23:15:58.769Z,21.25
2017-05-20T23:18:27.713Z,21.78
2017-05-20T23:20:56.661Z,23.12
2017-05-20T23:23:25.620Z,21.73
2017-05-20T23:25:54.554Z,21.25
2017-05-20T23:28:23.478Z,22.63
2017-05-20T23:30:52.444Z,21.27
2017-05-20T23:33:21.389Z,22.72
2017-05-20T23:35:50.315Z,27.58
2017-05-20T23:38:19.272Z,32.33
2017-05-20T23:40:48.226Z,33.78
2017-05-20T23:43:17.172Z,30.30
2017-05-20T23:45:46.178Z,27.43
2017-05-20T23:48:15.120Z,27.42
2017-05-20T23:50:44.040Z,25.50
2017-05-20T23:53:13.017Z,24.82
2017-05-20T23:55:41.966Z,21.95
2017-05-20T23:58:10.892Z,25.82
